Time;durP1;ratioP1;P1;durP2;ratioP2;P2;SDS_P1;SDS_P2;PMS_P1;PMS_P2;Temp;Humidity;BMP_temperature;BMP_pressure;BME280_temperature;BME280_humidity;BME280_pressure;Samples;Min_cycle;Max_cycle;Signal;HPM_P1;HPM_P2
2023/07/12 00:01:35;;;;;;;35.13;8.10;;;;;;;;;;6150194;23;20450;-82
2023/07/12 00:04:41;;;;;;;34.95;8.00;;;;;;;;;;6149228;23;20009;-82
2023/07/12 00:28:24;;;;;;;36.88;7.05;;;;;;;;;;6125887;23;20088;-82
2023/07/12 00:31:28;;;;;;;26.60;7.28;;;;;;;;;;6147373;23;20017;-83
2023/07/12 00:34:08;;;;;;;;;;;;;;;;;;;;;
2023/07/12 00:36:51;;;;;;;39.10;7.63;;;;;;;;;;6123331;23;20096;-82
2023/07/12 00:39:33;;;;;;;41.58;8.80;;;;;;;;;;6143754;23;20045;-82
2023/07/12 00:57:41;;;;;;;;;;;;;;;;;;;;;
2023/07/12 01:03:51;;;;;;;33.42;8.95;;;;;;;;;;6152736;23;20024;-82
2023/07/12 01:06:35;;;;;;;35.03;9.35;;;;;;;;;;6152603;23;20028;-82
2023/07/12 01:09:13;;;;;;;31.13;7.85;;;;;;;;;;6151654;23;20455;-82
2023/07/12 01:11:42;;;;;;;39.53;8.93;;;;;;;;;;6152375;23;20013;-82
2023/07/12 01:14:44;;;;;;;38.50;9.15;;;;;;;;;;6150783;23;20010;-82
2023/07/12 01:17:26;;;;;;;35.42;6.95;;;;;;;;;;6152095;23;20018;-82
2023/07/12 01:19:55;;;;;;;40.60;8.88;;;;;;;;;;6150749;23;20460;-82
2023/07/12 01:22:48;;;;;;;35.60;8.40;;;;;;;;;;6153311;23;20009;-83
2023/07/12 01:25:38;;;;;;;38.03;8.82;;;;;;;;;;6152261;23;20044;-82
2023/07/12 01:31:22;;;;;;;35.42;8.38;;;;;;;;;;6151542;23;20051;-83
2023/07/12 01:34:20;;;;;;;40.40;8.63;;;;;;;;;;6152923;23;20009;-83
2023/07/12 01:37:06;;;;;;;37.03;8.95;;;;;;;;;;6149656;23;20116;-83
2023/07/12 01:43:07;;;;;;;25.00;7.47;;;;;;;;;;6176998;23;20068;-83
2023/07/12 01:46:03;;;;;;;37.38;9.52;;;;;;;;;;6178476;23;20476;-84
2023/07/12 01:48:36;;;;;;;28.73;8.95;;;;;;;;;;6178485;23;20017;-83
2023/07/12 01:57:31;;;;;;;37.92;9.23;;;;;;;;;;6171936;23;20456;-83
2023/07/12 02:00:21;;;;;;;37.13;8.00;;;;;;;;;;6125200;23;20013;-82
2023/07/12 02:03:37;;;;;;;;;;;;;;;;;;;;;
2023/07/12 02:06:46;;;;;;;34.97;9.23;;;;;;;;;;6151143;23;20381;-83
2023/07/12 02:10:03;;;;;;;31.88;9.07;;;;;;;;;;6134507;23;20013;-83
2023/07/12 02:16:51;;;;;;;;;;;;;;;;;;;;;
2023/07/12 02:27:03;;;;;;;51.35;13.05;;;;;;;;;;6174199;22;20117;-82
2023/07/12 02:30:21;;;;;;;;;;;;;;;;;;;;;
2023/07/12 02:42:55;;;;;;;33.13;8.35;;;;;;;;;;6034275;23;20022;-82
2023/07/12 02:45:44;;;;;;;31.27;8.30;;;;;;;;;;5919511;24;20086;-81
2023/07/12 02:48:15;;;;;;;34.45;9.25;;;;;;;;;;6141833;23;20314;-81
2023/07/12 02:50:58;;;;;;;48.58;11.55;;;;;;;;;;6178794;23;20056;-81
2023/07/12 02:53:29;;;;;;;43.30;11.63;;;;;;;;;;6154613;23;20017;-81
2023/07/12 02:55:57;;;;;;;37.03;10.52;;;;;;;;;;6182175;23;20114;-80
2023/07/12 02:58:23;;;;;;;34.55;9.30;;;;;;;;;;6154160;23;20084;-80
2023/07/12 03:00:49;;;;;;;37.88;10.40;;;;;;;;;;6180280;23;20452;-80
2023/07/12 03:03:15;;;;;;;39.25;9.70;;;;;;;;;;6181208;23;20845;-80
2023/07/12 03:05:44;;;;;;;39.13;9.52;;;;;;;;;;6181820;23;20013;-80
2023/07/12 03:08:10;;;;;;;39.97;11.27;;;;;;;;;;6178902;23;20017;-80
2023/07/12 03:10:38;;;;;;;33.00;10.48;;;;;;;;;;6181638;23;20522;-81
2023/07/12 03:13:10;;;;;;;33.50;9.85;;;;;;;;;;6155375;23;20591;-81
2023/07/12 03:15:42;;;;;;;30.95;8.13;;;;;;;;;;6180568;23;20009;-80
2023/07/12 03:18:08;;;;;;;;;;;;;;;;;;6180343;23;20017;-80
2023/07/12 03:20:34;;;;;;;26.65;8.30;;;;;;;;;;6154609;23;19912;-81
2023/07/12 03:23:07;;;;;;;27.45;9.13;;;;;;;;;;6179306;23;20009;-81
2023/07/12 03:25:36;;;;;;;26.00;8.68;;;;;;;;;;6179359;23;20021;-81
2023/07/12 03:28:02;;;;;;;31.65;11.82;;;;;;;;;;6181728;23;20009;-80
2023/07/12 03:30:34;;;;;;;35.97;9.18;;;;;;;;;;6154094;23;20582;-80
2023/07/12 03:33:00;;;;;;;;;;;;;;;;;;6181448;23;20028;-81
2023/07/12 03:35:27;;;;;;;31.20;8.65;;;;;;;;;;6153878;23;19912;-80
2023/07/12 03:37:53;;;;;;;27.17;7.82;;;;;;;;;;6181549;23;20013;-81
2023/07/12 03:40:19;;;;;;;25.35;7.03;;;;;;;;;;6178797;23;20009;-80
2023/07/12 03:42:45;;;;;;;26.92;7.00;;;;;;;;;;6181558;23;20674;-81
2023/07/12 03:45:14;;;;;;;23.65;6.20;;;;;;;;;;6179542;23;20009;-80
2023/07/12 03:47:41;;;;;;;26.45;7.25;;;;;;;;;;6181368;23;20716;-80
2023/07/12 03:50:25;;;;;;;22.70;7.88;;;;;;;;;;6178700;23;20495;-80
2023/07/12 03:52:51;;;;;;;25.38;7.75;;;;;;;;;;6180169;23;20044;-80
2023/07/12 03:55:17;;;;;;;21.70;8.60;;;;;;;;;;6180909;23;20013;-80
2023/07/12 03:57:48;;;;;;;29.27;9.63;;;;;;;;;;6181466;23;20017;-80
2023/07/12 04:00:23;;;;;;;31.88;10.98;;;;;;;;;;6180408;23;20013;-80
2023/07/12 04:02:49;;;;;;;26.70;8.73;;;;;;;;;;6180903;23;20013;-80
2023/07/12 04:05:18;;;;;;;27.13;9.98;;;;;;;;;;6182713;23;20659;-80
2023/07/12 04:07:52;;;;;;;30.20;8.27;;;;;;;;;;6181236;23;20044;-81
2023/07/12 04:10:46;;;;;;;29.90;7.95;;;;;;;;;;6180808;23;20013;-81
2023/07/12 04:13:22;;;;;;;29.90;8.55;;;;;;;;;;6181034;23;20448;-80
2023/07/12 04:16:04;;;;;;;24.83;9.32;;;;;;;;;;6180352;23;20020;-81
2023/07/12 04:18:33;;;;;;;28.85;9.20;;;;;;;;;;6180781;23;20429;-81
2023/07/12 04:21:09;;;;;;;31.45;9.52;;;;;;;;;;6180312;23;20024;-81
2023/07/12 04:23:37;;;;;;;24.83;7.93;;;;;;;;;;6182300;23;20427;-81
2023/07/12 04:26:13;;;;;;;21.52;8.20;;;;;;;;;;6179994;23;20013;-81
2023/07/12 04:28:48;;;;;;;27.40;8.70;;;;;;;;;;6180397;23;20100;-81
2023/07/12 04:31:31;;;;;;;23.42;7.95;;;;;;;;;;6180032;23;20060;-81
2023/07/12 04:34:02;;;;;;;27.95;7.78;;;;;;;;;;6180895;23;20067;-81
2023/07/12 04:36:44;;;;;;;;;;;;;;;;;;;;;
2023/07/12 04:39:13;;;;;;;26.10;5.88;;;;;;;;;;6182525;23;20088;-81
2023/07/12 04:41:43;;;;;;;24.15;7.93;;;;;;;;;;6181079;23;20009;-81
2023/07/12 04:44:15;;;;;;;21.50;7.78;;;;;;;;;;6182134;23;20044;-81
2023/07/12 04:46:41;;;;;;;;;;;;;;;;;;6179986;23;20017;-82
2023/07/12 04:49:51;;;;;;;26.00;8.93;;;;;;;;;;6155382;23;20021;-81
2023/07/12 04:52:29;;;;;;;21.48;7.68;;;;;;;;;;6089441;23;20024;-82
2023/07/12 04:54:59;;;;;;;21.55;7.03;;;;;;;;;;6148132;23;20027;-81
2023/07/12 04:57:29;;;;;;;23.67;8.80;;;;;;;;;;6179772;23;20793;-81
2023/07/12 04:59:55;;;;;;;18.73;7.32;;;;;;;;;;6182015;23;20013;-81
2023/07/12 05:02:31;;;;;;;21.45;7.35;;;;;;;;;;6180123;23;20096;-82
2023/07/12 05:05:32;;;;;;;24.65;7.93;;;;;;;;;;6181701;23;20031;-82
2023/07/12 05:08:04;;;;;;;22.85;7.22;;;;;;;;;;6180564;23;20032;-82
2023/07/12 05:10:30;;;;;;;18.65;7.43;;;;;;;;;;6182870;23;20008;-82
2023/07/12 05:13:21;;;;;;;;;;;;;;;;;;;;;
2023/07/12 05:15:54;;;;;;;24.65;6.60;;;;;;;;;;6181429;23;20652;-83
2023/07/12 05:18:21;;;;;;;18.63;6.30;;;;;;;;;;6180870;23;20060;-80
2023/07/12 05:20:53;;;;;;;21.02;7.47;;;;;;;;;;6182071;23;20017;-82
2023/07/12 05:23:22;;;;;;;26.10;7.88;;;;;;;;;;6180076;23;20005;-83
2023/07/12 05:25:52;;;;;;;24.58;7.18;;;;;;;;;;6180143;23;20021;-81
2023/07/12 05:28:19;;;;;;;28.42;6.88;;;;;;;;;;6179277;23;20055;-82
2023/07/12 05:30:50;;;;;;;24.58;6.78;;;;;;;;;;6181237;23;20122;-82
2023/07/12 05:33:18;;;;;;;24.33;7.35;;;;;;;;;;6179729;23;20013;-82
2023/07/12 05:35:46;;;;;;;16.85;6.35;;;;;;;;;;6182413;23;20087;-82
2023/07/12 05:38:16;;;;;;;21.77;6.65;;;;;;;;;;6181745;23;20075;-83
2023/07/12 05:40:42;;;;;;;20.52;6.50;;;;;;;;;;6182663;23;20001;-83
2023/07/12 05:43:10;;;;;;;21.83;5.82;;;;;;;;;;6179971;23;20103;-82
2023/07/12 05:45:36;;;;;;;18.33;6.18;;;;;;;;;;6181629;23;20016;-81
2023/07/12 05:48:03;;;;;;;18.95;5.75;;;;;;;;;;6179269;23;20019;-81
2023/07/12 05:50:31;;;;;;;24.67;6.10;;;;;;;;;;6182097;23;20005;-81
2023/07/12 05:52:57;;;;;;;22.35;7.40;;;;;;;;;;6179242;23;20017;-81
2023/07/12 05:55:23;;;;;;;27.63;6.88;;;;;;;;;;6181600;23;20124;-81
2023/07/12 05:57:49;;;;;;;19.98;6.45;;;;;;;;;;6179295;23;20063;-80
2023/07/12 06:00:17;;;;;;;26.48;7.07;;;;;;;;;;6181766;23;20005;-81
2023/07/12 06:02:43;;;;;;;23.27;7.18;;;;;;;;;;6179670;23;20308;-81
2023/07/12 06:05:10;;;;;;;23.55;7.00;;;;;;;;;;6181990;23;20080;-81
2023/07/12 06:07:36;;;;;;;19.48;6.10;;;;;;;;;;6181469;23;20048;-80
2023/07/12 06:10:02;;;;;;;21.27;6.43;;;;;;;;;;6180513;23;20005;-81
2023/07/12 06:12:28;;;;;;;22.50;7.40;;;;;;;;;;6181467;23;20425;-81
2023/07/12 06:14:54;;;;;;;20.83;5.85;;;;;;;;;;6179098;23;20043;-81
2023/07/12 06:17:20;;;;;;;19.25;5.40;;;;;;;;;;6180057;23;20012;-81
2023/07/12 06:19:46;;;;;;;21.58;5.85;;;;;;;;;;6181082;23;20005;-81
2023/07/12 06:22:12;;;;;;;25.77;6.32;;;;;;;;;;6180196;23;20428;-81
2023/07/12 06:24:38;;;;;;;19.55;5.53;;;;;;;;;;6181561;23;20013;-81
2023/07/12 06:27:06;;;;;;;16.70;5.30;;;;;;;;;;6182319;23;20036;-81
2023/07/12 06:29:32;;;;;;;21.00;5.65;;;;;;;;;;6181185;23;20048;-80
2023/07/12 06:31:58;;;;;;;25.85;5.70;;;;;;;;;;6179846;23;20425;-80
2023/07/12 06:34:24;;;;;;;23.17;5.68;;;;;;;;;;6181192;23;20017;-80
2023/07/12 06:36:50;;;;;;;25.67;6.28;;;;;;;;;;6180223;23;20001;-81
2023/07/12 06:39:16;;;;;;;30.52;7.22;;;;;;;;;;6179196;23;20020;-80
2023/07/12 06:41:42;;;;;;;22.23;7.40;;;;;;;;;;6179810;23;20001;-81
2023/07/12 06:44:08;;;;;;;24.30;6.65;;;;;;;;;;6179010;23;20087;-80
2023/07/12 06:46:34;;;;;;;21.85;5.93;;;;;;;;;;6180064;23;20017;-80
2023/07/12 06:49:00;;;;;;;24.08;6.88;;;;;;;;;;6178884;23;20016;-80
2023/07/12 06:51:26;;;;;;;20.30;6.28;;;;;;;;;;6181603;23;20403;-81
2023/07/12 06:53:52;;;;;;;20.20;6.25;;;;;;;;;;6178964;23;20017;-81
2023/07/12 06:56:18;;;;;;;26.10;7.57;;;;;;;;;;6178988;23;20052;-80
2023/07/12 06:58:44;;;;;;;23.05;6.70;;;;;;;;;;6181274;23;20626;-81
2023/07/12 07:01:11;;;;;;;18.77;5.40;;;;;;;;;;6180157;23;20005;-80
2023/07/12 07:03:37;;;;;;;16.85;5.50;;;;;;;;;;6179538;23;20016;-81
2023/07/12 07:06:03;;;;;;;22.95;5.70;;;;;;;;;;6178889;23;20017;-81
2023/07/12 07:08:30;;;;;;;19.90;6.63;;;;;;;;;;6181504;23;20017;-81
2023/07/12 07:10:56;;;;;;;22.27;5.90;;;;;;;;;;6181009;23;20012;-81
2023/07/12 07:13:23;;;;;;;21.85;5.10;;;;;;;;;;6181610;23;20017;-81
2023/07/12 07:15:49;;;;;;;21.75;6.30;;;;;;;;;;6178547;23;20055;-82
2023/07/12 07:18:15;;;;;;;24.25;5.60;;;;;;;;;;6181378;23;20009;-81
2023/07/12 07:20:42;;;;;;;16.27;5.68;;;;;;;;;;6178978;23;20009;-81
2023/07/12 07:23:08;;;;;;;20.33;6.97;;;;;;;;;;6180429;23;20017;-82
2023/07/12 07:25:34;;;;;;;21.80;5.57;;;;;;;;;;6179241;23;20555;-81
2023/07/12 07:28:00;;;;;;;17.50;4.85;;;;;;;;;;6180469;23;20036;-81
2023/07/12 07:30:27;;;;;;;19.15;5.80;;;;;;;;;;6180994;23;20453;-81
2023/07/12 07:32:54;;;;;;;23.35;6.47;;;;;;;;;;6183907;23;20013;-81
2023/07/12 07:35:20;;;;;;;21.75;6.60;;;;;;;;;;6180733;23;20009;-82
2023/07/12 07:37:47;;;;;;;18.45;6.60;;;;;;;;;;6182056;23;20051;-81
2023/07/12 07:40:13;;;;;;;18.35;5.25;;;;;;;;;;6182740;23;20008;-81
2023/07/12 07:42:39;;;;;;;19.63;6.45;;;;;;;;;;6182282;23;20009;-81
2023/07/12 07:45:05;;;;;;;20.02;6.60;;;;;;;;;;6184019;23;20011;-81
2023/07/12 07:47:31;;;;;;;22.80;6.45;;;;;;;;;;6180961;23;20052;-81
2023/07/12 07:49:57;;;;;;;25.25;6.90;;;;;;;;;;6181348;23;20016;-81
2023/07/12 07:52:23;;;;;;;18.05;5.57;;;;;;;;;;6180304;23;20009;-81
2023/07/12 07:54:49;;;;;;;27.75;7.15;;;;;;;;;;6181378;23;20008;-81
2023/07/12 07:57:15;;;;;;;21.23;5.97;;;;;;;;;;6180749;23;20052;-81
2023/07/12 07:59:41;;;;;;;20.20;6.00;;;;;;;;;;6181679;23;20005;-81
2023/07/12 08:02:10;;;;;;;17.55;6.00;;;;;;;;;;6182124;23;20001;-81
2023/07/12 08:04:40;;;;;;;22.77;6.20;;;;;;;;;;6183488;23;20055;-81
2023/07/12 08:07:07;;;;;;;21.73;6.18;;;;;;;;;;6180397;23;20128;-81
2023/07/12 08:09:36;;;;;;;22.67;6.57;;;;;;;;;;6181013;23;20044;-81
2023/07/12 08:12:02;;;;;;;24.00;5.90;;;;;;;;;;6180036;23;20064;-81
2023/07/12 08:14:28;;;;;;;19.60;5.70;;;;;;;;;;6183318;23;20017;-81
2023/07/12 08:16:54;;;;;;;19.30;5.93;;;;;;;;;;6180145;23;20044;-81
2023/07/12 08:19:21;;;;;;;24.65;6.68;;;;;;;;;;6183653;23;20079;-81
2023/07/12 08:21:49;;;;;;;20.33;6.97;;;;;;;;;;6179948;23;20005;-81
2023/07/12 08:24:15;;;;;;;17.15;5.93;;;;;;;;;;6181257;23;20013;-81
2023/07/12 08:26:41;;;;;;;21.33;6.30;;;;;;;;;;6181946;23;20001;-80
2023/07/12 08:29:07;;;;;;;21.05;5.25;;;;;;;;;;6182777;23;20028;-82
2023/07/12 08:31:33;;;;;;;17.08;4.78;;;;;;;;;;6180036;23;20008;-82
2023/07/12 08:33:59;;;;;;;19.13;5.85;;;;;;;;;;6182953;23;20079;-82
2023/07/12 08:36:25;;;;;;;20.20;6.03;;;;;;;;;;6180340;23;20009;-82
2023/07/12 08:38:51;;;;;;;23.63;6.15;;;;;;;;;;6180950;23;20298;-82
2023/07/12 08:41:20;;;;;;;24.70;6.22;;;;;;;;;;6182435;23;20410;-82
2023/07/12 08:43:46;;;;;;;17.88;5.00;;;;;;;;;;6182291;23;20013;-82
2023/07/12 08:46:22;;;;;;;17.52;5.22;;;;;;;;;;6155879;23;20015;-82
2023/07/12 08:48:54;;;;;;;22.15;5.00;;;;;;;;;;6155495;23;20013;-82
2023/07/12 08:51:24;;;;;;;20.95;5.60;;;;;;;;;;6156814;23;20035;-82
2023/07/12 08:53:50;;;;;;;15.05;5.30;;;;;;;;;;6155141;23;20021;-81
2023/07/12 08:56:18;;;;;;;17.52;5.68;;;;;;;;;;6182004;23;20099;-81
2023/07/12 08:58:46;;;;;;;19.58;5.60;;;;;;;;;;6154909;23;20654;-81
2023/07/12 09:01:14;;;;;;;20.67;5.90;;;;;;;;;;6182389;23;20007;-81
2023/07/12 09:03:40;;;;;;;22.25;5.43;;;;;;;;;;6154674;23;20096;-82
2023/07/12 09:06:13;;;;;;;18.27;5.35;;;;;;;;;;6155699;23;20032;-82
2023/07/12 09:08:40;;;;;;;18.92;5.40;;;;;;;;;;6154806;23;20099;-82
2023/07/12 09:11:16;;;;;;;23.45;6.43;;;;;;;;;;6156348;23;20672;-81
2023/07/12 09:13:46;;;;;;;24.80;6.07;;;;;;;;;;6181348;23;20012;-82
2023/07/12 09:16:21;;;;;;;20.70;5.28;;;;;;;;;;6155672;23;20009;-81
2023/07/12 09:18:48;;;;;;;18.15;5.88;;;;;;;;;;6154870;23;20055;-82
2023/07/12 09:21:16;;;;;;;21.52;5.63;;;;;;;;;;6155549;23;20043;-82
2023/07/12 09:23:43;;;;;;;21.90;5.47;;;;;;;;;;6181439;23;20005;-82
2023/07/12 09:26:11;;;;;;;20.13;5.30;;;;;;;;;;6181569;23;20016;-82
2023/07/12 09:28:41;;;;;;;21.88;5.70;;;;;;;;;;6154280;23;20046;-82
2023/07/12 09:31:14;;;;;;;19.85;5.30;;;;;;;;;;6155714;23;20013;-82
2023/07/12 09:33:40;;;;;;;23.23;5.85;;;;;;;;;;6153830;23;20017;-82
2023/07/12 09:36:06;;;;;;;20.27;5.60;;;;;;;;;;6155522;23;20013;-82
2023/07/12 09:38:35;;;;;;;20.33;5.38;;;;;;;;;;6154252;23;20092;-81
2023/07/12 09:41:08;;;;;;;24.58;5.57;;;;;;;;;;6155426;23;20361;-83
2023/07/12 09:43:37;;;;;;;17.67;5.72;;;;;;;;;;6155002;23;20021;-81
2023/07/12 09:46:03;;;;;;;20.70;5.45;;;;;;;;;;6181810;23;20016;-82
2023/07/12 09:48:37;;;;;;;19.95;5.97;;;;;;;;;;6155187;23;20021;-82
2023/07/12 09:51:16;;;;;;;20.52;5.88;;;;;;;;;;6154901;23;20013;-82
2023/07/12 09:53:48;;;;;;;24.98;6.28;;;;;;;;;;6155380;23;20035;-82
2023/07/12 09:56:14;;;;;;;;;;;;;;;;;;6181673;23;20060;-82
2023/07/12 09:58:43;;;;;;;28.17;6.57;;;;;;;;;;6180369;23;20308;-82
2023/07/12 10:01:17;;;;;;;25.80;6.38;;;;;;;;;;6154757;23;20463;-82
2023/07/12 10:03:46;;;;;;;19.05;5.03;;;;;;;;;;6182403;23;20020;-82
2023/07/12 10:06:20;;;;;;;24.08;5.88;;;;;;;;;;6154084;23;20481;-82
2023/07/12 10:08:50;;;;;;;19.70;6.18;;;;;;;;;;6155089;23;20024;-82
2023/07/12 10:11:23;;;;;;;28.17;6.68;;;;;;;;;;6153683;23;20514;-83
2023/07/12 10:13:51;;;;;;;24.00;5.60;;;;;;;;;;6181982;23;20055;-83
2023/07/12 10:16:20;;;;;;;24.65;6.45;;;;;;;;;;6154184;23;20013;-82
2023/07/12 10:18:48;;;;;;;24.88;5.85;;;;;;;;;;6154791;23;20017;-83
2023/07/12 10:21:17;;;;;;;26.25;5.88;;;;;;;;;;6181266;23;20428;-82
2023/07/12 10:23:46;;;;;;;27.55;6.57;;;;;;;;;;6155476;23;20056;-82
2023/07/12 10:26:13;;;;;;;27.40;6.55;;;;;;;;;;6154098;23;20009;-82
2023/07/12 10:28:39;;;;;;;21.23;5.35;;;;;;;;;;6155107;23;20672;-83
2023/07/12 10:31:09;;;;;;;26.63;6.03;;;;;;;;;;6154036;23;20421;-83
2023/07/12 10:33:43;;;;;;;23.35;5.53;;;;;;;;;;6155050;23;20021;-83
2023/07/12 10:36:12;;;;;;;22.50;6.00;;;;;;;;;;6154710;23;20044;-83
2023/07/12 10:38:38;;;;;;;28.00;6.10;;;;;;;;;;6154135;23;20024;-82
2023/07/12 10:41:27;;;;;;;28.88;6.53;;;;;;;;;;6154804;23;20144;-82
2023/07/12 10:44:00;;;;;;;18.65;6.32;;;;;;;;;;6152544;23;20314;-82
2023/07/12 10:46:32;;;;;;;25.35;6.13;;;;;;;;;;6155631;23;20598;-83
2023/07/12 10:48:59;;;;;;;21.65;6.60;;;;;;;;;;6154271;23;20398;-82
2023/07/12 10:51:35;;;;;;;18.30;6.15;;;;;;;;;;6155550;23;20013;-82
2023/07/12 10:54:02;;;;;;;27.58;5.57;;;;;;;;;;6154095;23;20028;-82
2023/07/12 10:56:38;;;;;;;24.33;5.82;;;;;;;;;;6155754;23;20038;-81
2023/07/12 10:59:05;;;;;;;23.30;6.80;;;;;;;;;;6181850;23;20055;-82
2023/07/12 11:01:57;;;;;;;21.88;5.93;;;;;;;;;;6182132;23;20310;-82
2023/07/12 11:04:26;;;;;;;35.15;7.07;;;;;;;;;;6109712;23;20021;-82
2023/07/12 11:06:57;;;;;;;29.70;7.15;;;;;;;;;;6155698;23;20318;-82
2023/07/12 11:09:24;;;;;;;28.70;6.35;;;;;;;;;;6153705;23;20020;-82
2023/07/12 11:11:50;;;;;;;21.20;6.88;;;;;;;;;;6156064;23;20005;-82
2023/07/12 11:14:16;;;;;;;21.33;6.03;;;;;;;;;;6154415;23;20020;-82
2023/07/12 11:16:48;;;;;;;23.13;6.45;;;;;;;;;;6182814;23;20005;-82
2023/07/12 11:19:32;;;;;;;19.58;6.03;;;;;;;;;;6154561;23;20005;-82
2023/07/12 11:22:02;;;;;;;22.90;6.18;;;;;;;;;;6155234;23;20013;-82
2023/07/12 11:24:28;;;;;;;28.83;6.40;;;;;;;;;;6181180;23;20016;-82
2023/07/12 11:26:57;;;;;;;23.60;5.82;;;;;;;;;;6155432;23;20020;-82
2023/07/12 11:29:25;;;;;;;23.27;5.40;;;;;;;;;;6154227;23;20025;-82
2023/07/12 11:32:03;;;;;;;25.35;5.47;;;;;;;;;;6155569;23;20013;-82
2023/07/12 11:34:30;;;;;;;22.67;5.65;;;;;;;;;;6181534;23;20438;-82
2023/07/12 11:36:57;;;;;;;17.45;6.35;;;;;;;;;;6155509;23;20005;-82
2023/07/12 11:39:27;;;;;;;21.13;5.45;;;;;;;;;;6154639;23;20344;-83
2023/07/12 11:41:57;;;;;;;20.60;5.95;;;;;;;;;;6156153;23;20005;-82
2023/07/12 11:44:25;;;;;;;19.92;6.43;;;;;;;;;;6154905;23;20317;-82
2023/07/12 11:46:52;;;;;;;26.08;5.93;;;;;;;;;;6154958;23;20005;-82
2023/07/12 11:49:19;;;;;;;26.30;5.88;;;;;;;;;;6155647;23;20036;-82
2023/07/12 11:51:46;;;;;;;24.42;5.53;;;;;;;;;;6155008;23;20320;-82
2023/07/12 11:54:20;;;;;;;24.45;5.57;;;;;;;;;;6154977;23;20571;-82
2023/07/12 11:56:47;;;;;;;24.80;5.70;;;;;;;;;;6155031;23;20092;-82
2023/07/12 11:59:14;;;;;;;29.27;5.93;;;;;;;;;;6155511;23;20017;-82
2023/07/12 12:01:40;;;;;;;19.80;5.70;;;;;;;;;;6154928;23;20352;-82
2023/07/12 12:04:06;;;;;;;23.70;5.70;;;;;;;;;;6181722;23;20013;-83
2023/07/12 12:06:33;;;;;;;23.13;7.88;;;;;;;;;;6155080;23;20091;-82
2023/07/12 12:08:59;;;;;;;22.08;6.32;;;;;;;;;;6182700;23;20016;-82
2023/07/12 12:11:29;;;;;;;27.25;6.65;;;;;;;;;;6155688;23;20313;-82
2023/07/12 12:13:57;;;;;;;25.92;6.20;;;;;;;;;;6156236;23;20115;-82
2023/07/12 12:16:27;;;;;;;32.80;6.57;;;;;;;;;;6156943;23;20100;-81
2023/07/12 12:18:58;;;;;;;26.30;5.78;;;;;;;;;;6157697;23;20013;-82
2023/07/12 12:21:25;;;;;;;25.33;7.60;;;;;;;;;;6183540;23;20005;-82
2023/07/12 12:23:58;;;;;;;34.00;7.13;;;;;;;;;;6157166;23;20017;-81
2023/07/12 12:26:26;;;;;;;24.58;6.65;;;;;;;;;;6156026;23;20024;-82
2023/07/12 12:29:02;;;;;;;30.42;7.05;;;;;;;;;;6156973;23;20436;-81
2023/07/12 12:31:32;;;;;;;32.45;7.80;;;;;;;;;;6156838;23;20009;-81
2023/07/12 12:34:06;;;;;;;22.27;6.28;;;;;;;;;;6157092;23;20092;-82
2023/07/12 12:36:33;;;;;;;25.30;6.05;;;;;;;;;;6156356;23;20016;-82
2023/07/12 12:39:22;;;;;;;25.17;6.85;;;;;;;;;;6157164;23;20008;-81
2023/07/12 12:41:55;;;;;;;24.75;6.22;;;;;;;;;;6141146;23;20650;-82
2023/07/12 12:44:22;;;;;;;26.45;6.82;;;;;;;;;;6184569;23;20009;-82
2023/07/12 12:46:53;;;;;;;27.77;6.63;;;;;;;;;;6156241;23;20084;-82
2023/07/12 12:49:19;;;;;;;25.77;6.20;;;;;;;;;;6184352;23;20009;-82
2023/07/12 12:51:45;;;;;;;29.60;6.60;;;;;;;;;;6184518;23;20016;-82
2023/07/12 12:54:11;;;;;;;26.48;6.88;;;;;;;;;;6183950;23;20013;-82
2023/07/12 12:56:37;;;;;;;26.50;7.05;;;;;;;;;;6183151;23;20015;-82
2023/07/12 12:59:03;;;;;;;24.48;6.28;;;;;;;;;;6156897;23;20099;-81
2023/07/12 13:01:29;;;;;;;24.42;6.88;;;;;;;;;;6157145;23;20040;-81
2023/07/12 13:03:56;;;;;;;20.85;6.07;;;;;;;;;;6183457;23;20032;-82
2023/07/12 13:06:24;;;;;;;26.48;7.20;;;;;;;;;;6157545;23;20012;-82
2023/07/12 13:08:50;;;;;;;29.52;6.65;;;;;;;;;;6156850;23;20083;-81
2023/07/12 13:11:17;;;;;;;26.25;6.38;;;;;;;;;;6157481;23;20401;-81
2023/07/12 13:13:43;;;;;;;27.77;6.30;;;;;;;;;;6183869;23;20009;-82
2023/07/12 13:16:21;;;;;;;26.25;6.68;;;;;;;;;;6157137;23;20019;-81
2023/07/12 13:18:47;;;;;;;27.10;6.10;;;;;;;;;;6156490;23;20053;-81
2023/07/12 13:21:17;;;;;;;24.88;6.32;;;;;;;;;;6157345;23;20696;-82
2023/07/12 13:23:44;;;;;;;25.42;6.40;;;;;;;;;;6156331;23;20017;-81
2023/07/12 13:26:14;;;;;;;26.73;6.72;;;;;;;;;;6158135;23;20011;-82
2023/07/12 13:28:40;;;;;;;19.75;5.68;;;;;;;;;;6157589;23;20009;-81
2023/07/12 13:31:06;;;;;;;27.13;6.55;;;;;;;;;;6159193;23;20013;-81
2023/07/12 13:33:32;;;;;;;24.73;6.35;;;;;;;;;;6184710;23;20076;-82
2023/07/12 13:35:58;;;;;;;18.75;5.72;;;;;;;;;;6185192;23;20072;-82
2023/07/12 13:38:24;;;;;;;30.30;6.93;;;;;;;;;;6156056;23;20021;-81
2023/07/12 13:40:50;;;;;;;32.47;7.53;;;;;;;;;;6183840;23;20005;-81
2023/07/12 13:43:16;;;;;;;24.48;6.47;;;;;;;;;;6155894;23;20602;-81
2023/07/12 13:45:42;;;;;;;22.35;6.03;;;;;;;;;;6183157;23;20004;-82
2023/07/12 13:48:14;;;;;;;33.17;6.90;;;;;;;;;;6157179;23;20017;-82
2023/07/12 13:50:40;;;;;;;31.42;6.88;;;;;;;;;;6156743;23;20092;-81
2023/07/12 13:53:08;;;;;;;21.88;5.38;;;;;;;;;;6157242;23;20547;-81
2023/07/12 13:55:34;;;;;;;29.42;6.15;;;;;;;;;;6157473;23;20048;-82
2023/07/12 13:58:00;;;;;;;25.38;6.22;;;;;;;;;;6157425;23;20748;-82
2023/07/12 14:00:27;;;;;;;22.92;7.07;;;;;;;;;;6184468;23;20001;-81
2023/07/12 14:02:54;;;;;;;28.10;6.75;;;;;;;;;;6157117;23;20692;-82
2023/07/12 14:05:21;;;;;;;28.23;6.38;;;;;;;;;;6156448;23;20436;-82
2023/07/12 14:07:47;;;;;;;27.35;6.78;;;;;;;;;;6157575;23;20005;-81
2023/07/12 14:10:15;;;;;;;22.98;5.43;;;;;;;;;;6157899;23;20021;-82
2023/07/12 14:12:41;;;;;;;22.02;6.28;;;;;;;;;;6157787;23;20092;-81
2023/07/12 14:15:14;;;;;;;26.02;7.13;;;;;;;;;;6157129;23;20028;-82
2023/07/12 14:17:40;;;;;;;20.95;5.68;;;;;;;;;;6158012;23;20005;-82
2023/07/12 14:20:08;;;;;;;22.45;6.50;;;;;;;;;;6156303;23;20021;-81
2023/07/12 14:22:34;;;;;;;26.42;6.60;;;;;;;;;;6156934;23;20009;-81
2023/07/12 14:25:00;;;;;;;29.25;6.10;;;;;;;;;;6157249;23;20437;-81
2023/07/12 14:27:28;;;;;;;22.00;5.97;;;;;;;;;;6157211;23;20012;-81
2023/07/12 14:29:58;;;;;;;22.08;5.90;;;;;;;;;;6156246;23;20217;-82
2023/07/12 14:32:27;;;;;;;14.43;4.85;;;;;;;;;;6157334;23;20013;-82
2023/07/12 14:34:53;;;;;;;20.58;6.85;;;;;;;;;;6157093;23;20024;-82
2023/07/12 14:37:20;;;;;;;20.80;6.00;;;;;;;;;;6156335;23;20621;-82
2023/07/12 14:39:47;;;;;;;23.85;5.95;;;;;;;;;;6156365;23;20017;-81
2023/07/12 14:42:15;;;;;;;23.70;5.80;;;;;;;;;;6156116;23;20083;-82
2023/07/12 14:44:41;;;;;;;20.60;6.10;;;;;;;;;;6183450;23;20069;-82
2023/07/12 14:47:11;;;;;;;26.77;6.28;;;;;;;;;;6157144;23;20316;-82
2023/07/12 14:49:38;;;;;;;29.05;6.50;;;;;;;;;;6157276;23;20020;-82
2023/07/12 14:52:04;;;;;;;21.75;6.95;;;;;;;;;;6156586;23;20016;-82
2023/07/12 14:54:30;;;;;;;20.70;5.97;;;;;;;;;;6157213;23;20723;-82
2023/07/12 14:56:56;;;;;;;25.67;7.00;;;;;;;;;;6181855;23;20001;-82
2023/07/12 14:59:22;;;;;;;20.80;6.07;;;;;;;;;;6156725;23;20016;-82
2023/07/12 15:01:48;;;;;;;27.88;7.20;;;;;;;;;;6155828;23;20400;-81
2023/07/12 15:04:15;;;;;;;21.63;6.50;;;;;;;;;;6183058;23;20009;-81
2023/07/12 15:06:41;;;;;;;14.25;5.28;;;;;;;;;;6155674;23;20043;-81
2023/07/12 15:09:07;;;;;;;28.67;7.85;;;;;;;;;;6156707;23;20830;-81
2023/07/12 15:11:33;;;;;;;23.20;6.50;;;;;;;;;;6156239;23;20005;-82
2023/07/12 15:13:59;;;;;;;25.67;6.75;;;;;;;;;;6156705;23;20041;-81
2023/07/12 15:16:25;;;;;;;20.73;6.10;;;;;;;;;;6155405;23;20017;-82
2023/07/12 15:18:52;;;;;;;21.88;6.38;;;;;;;;;;6157080;23;20009;-82
2023/07/12 15:21:18;;;;;;;20.10;6.03;;;;;;;;;;6156433;23;20013;-82
2023/07/12 15:23:44;;;;;;;19.83;5.82;;;;;;;;;;6156943;23;20634;-81
2023/07/12 15:26:11;;;;;;;20.30;6.15;;;;;;;;;;6156708;23;20040;-82
2023/07/12 15:28:38;;;;;;;18.00;6.32;;;;;;;;;;6156738;23;20021;-81
2023/07/12 15:31:25;;;;;;;23.13;6.10;;;;;;;;;;6156254;23;20032;-81
2023/07/12 15:33:52;;;;;;;25.17;6.85;;;;;;;;;;6096474;23;20459;-81
2023/07/12 15:36:18;;;;;;;18.98;6.25;;;;;;;;;;6183144;23;20019;-81
2023/07/12 15:38:47;;;;;;;27.48;7.60;;;;;;;;;;6155800;23;20125;-81
2023/07/12 15:41:18;;;;;;;20.45;6.53;;;;;;;;;;6156579;23;20013;-81
2023/07/12 15:43:47;;;;;;;20.88;7.25;;;;;;;;;;6155780;23;20441;-81
2023/07/12 15:46:15;;;;;;;19.60;5.75;;;;;;;;;;6182677;23;20021;-82
2023/07/12 15:48:41;;;;;;;18.83;6.72;;;;;;;;;;6156179;23;20009;-81
2023/07/12 15:51:12;;;;;;;20.48;6.05;;;;;;;;;;6157894;23;20017;-81
2023/07/12 15:53:38;;;;;;;22.25;6.70;;;;;;;;;;6183606;23;20004;-81
2023/07/12 15:56:05;;;;;;;25.10;6.68;;;;;;;;;;6158029;23;20021;-81
2023/07/12 15:58:31;;;;;;;18.75;6.07;;;;;;;;;;6183626;23;20001;-81
2023/07/12 16:00:59;;;;;;;26.40;6.13;;;;;;;;;;6185043;23;20020;-82
2023/07/12 16:03:55;;;;;;;21.65;6.35;;;;;;;;;;6151346;23;20040;-82
2023/07/12 16:06:50;;;;;;;15.68;5.68;;;;;;;;;;6136164;23;20334;-82
2023/07/12 16:09:16;;;;;;;18.02;6.72;;;;;;;;;;6109326;23;20021;-82
2023/07/12 16:12:14;;;;;;;15.52;6.38;;;;;;;;;;6153922;23;20013;-81
2023/07/12 16:15:18;;;;;;;21.10;6.18;;;;;;;;;;6155087;23;20006;-82